sensor_id;sensor_type;location;lat;lon;timestamp;P1;durP1;ratioP1;P2;durP2;ratioP2
32216;SDS011;18709;51.140;4.088;2022-07-05T00:01:02;3.85;;;2.03;;
32216;SDS011;18709;51.140;4.088;2022-07-05T00:03:28;2.42;;;1.70;;
32216;SDS011;18709;51.140;4.088;2022-07-05T00:05:56;4.20;;;1.75;;
32216;SDS011;18709;51.140;4.088;2022-07-05T00:08:23;5.45;;;1.70;;
32216;SDS011;18709;51.140;4.088;2022-07-05T00:10:50;5.47;;;1.90;;
32216;SDS011;18709;51.140;4.088;2022-07-05T00:13:16;3.80;;;1.85;;
32216;SDS011;18709;51.140;4.088;2022-07-05T00:15:42;3.72;;;1.58;;
32216;SDS011;18709;51.140;4.088;2022-07-05T00:18:07;3.53;;;1.65;;
32216;SDS011;18709;51.140;4.088;2022-07-05T00:20:33;5.10;;;1.90;;
32216;SDS011;18709;51.140;4.088;2022-07-05T00:22:59;3.40;;;1.58;;
32216;SDS011;18709;51.140;4.088;2022-07-05T00:25:25;5.25;;;1.80;;
32216;SDS011;18709;51.140;4.088;2022-07-05T00:27:51;5.15;;;1.80;;
32216;SDS011;18709;51.140;4.088;2022-07-05T00:30:18;2.85;;;1.80;;
32216;SDS011;18709;51.140;4.088;2022-07-05T00:32:44;6.32;;;1.67;;
32216;SDS011;18709;51.140;4.088;2022-07-05T00:35:10;3.50;;;1.67;;
32216;SDS011;18709;51.140;4.088;2022-07-05T00:37:36;3.90;;;1.50;;
32216;SDS011;18709;51.140;4.088;2022-07-05T00:40:02;5.05;;;1.65;;
32216;SDS011;18709;51.140;4.088;2022-07-05T00:42:29;3.92;;;1.90;;
32216;SDS011;18709;51.140;4.088;2022-07-05T00:44:54;2.83;;;1.83;;
32216;SDS011;18709;51.140;4.088;2022-07-05T00:47:20;3.42;;;1.80;;
32216;SDS011;18709;51.140;4.088;2022-07-05T00:49:46;6.50;;;1.85;;
32216;SDS011;18709;51.140;4.088;2022-07-05T00:52:12;5.85;;;1.83;;
32216;SDS011;18709;51.140;4.088;2022-07-05T00:54:39;2.90;;;1.67;;
32216;SDS011;18709;51.140;4.088;2022-07-05T00:57:06;5.38;;;2.28;;
32216;SDS011;18709;51.140;4.088;2022-07-05T00:59:32;5.93;;;1.77;;
32216;SDS011;18709;51.140;4.088;2022-07-05T01:01:58;5.90;;;1.92;;
32216;SDS011;18709;51.140;4.088;2022-07-05T01:04:24;4.80;;;1.55;;
32216;SDS011;18709;51.140;4.088;2022-07-05T01:06:50;4.00;;;1.75;;
32216;SDS011;18709;51.140;4.088;2022-07-05T01:09:17;6.30;;;2.30;;
32216;SDS011;18709;51.140;4.088;2022-07-05T01:11:45;4.07;;;1.90;;
32216;SDS011;18709;51.140;4.088;2022-07-05T01:14:12;5.25;;;1.95;;
32216;SDS011;18709;51.140;4.088;2022-07-05T01:16:40;3.05;;;1.60;;
32216;SDS011;18709;51.140;4.088;2022-07-05T01:19:06;4.05;;;1.80;;
32216;SDS011;18709;51.140;4.088;2022-07-05T01:21:42;3.72;;;1.80;;
32216;SDS011;18709;51.140;4.088;2022-07-05T01:24:12;2.63;;;1.65;;
32216;SDS011;18709;51.140;4.088;2022-07-05T01:26:39;3.20;;;1.80;;
32216;SDS011;18709;51.140;4.088;2022-07-05T01:29:06;6.50;;;1.90;;
32216;SDS011;18709;51.140;4.088;2022-07-05T01:31:33;4.68;;;2.05;;
32216;SDS011;18709;51.140;4.088;2022-07-05T01:34:01;2.95;;;2.05;;
32216;SDS011;18709;51.140;4.088;2022-07-05T01:36:27;6.18;;;2.03;;
32216;SDS011;18709;51.140;4.088;2022-07-05T01:38:53;3.92;;;2.30;;
32216;SDS011;18709;51.140;4.088;2022-07-05T01:41:18;4.07;;;1.90;;
32216;SDS011;18709;51.140;4.088;2022-07-05T01:43:45;6.97;;;2.08;;
32216;SDS011;18709;51.140;4.088;2022-07-05T01:46:11;5.68;;;1.85;;
32216;SDS011;18709;51.140;4.088;2022-07-05T01:48:40;3.38;;;2.20;;
32216;SDS011;18709;51.140;4.088;2022-07-05T01:51:12;5.43;;;2.15;;
32216;SDS011;18709;51.140;4.088;2022-07-05T01:53:43;6.93;;;2.30;;
32216;SDS011;18709;51.140;4.088;2022-07-05T01:56:09;4.07;;;2.38;;
32216;SDS011;18709;51.140;4.088;2022-07-05T01:58:35;7.68;;;2.13;;
32216;SDS011;18709;51.140;4.088;2022-07-05T02:01:01;6.22;;;2.33;;
32216;SDS011;18709;51.140;4.088;2022-07-05T02:03:27;8.98;;;2.40;;
32216;SDS011;18709;51.140;4.088;2022-07-05T02:05:53;9.00;;;1.95;;
32216;SDS011;18709;51.140;4.088;2022-07-05T02:08:19;7.20;;;2.90;;
32216;SDS011;18709;51.140;4.088;2022-07-05T02:10:45;4.88;;;2.30;;
32216;SDS011;18709;51.140;4.088;2022-07-05T02:13:12;4.38;;;2.30;;
32216;SDS011;18709;51.140;4.088;2022-07-05T02:15:38;8.10;;;2.40;;
32216;SDS011;18709;51.140;4.088;2022-07-05T02:18:06;4.10;;;2.28;;
32216;SDS011;18709;51.140;4.088;2022-07-05T02:20:33;6.00;;;2.40;;
32216;SDS011;18709;51.140;4.088;2022-07-05T02:23:00;7.93;;;2.70;;
32216;SDS011;18709;51.140;4.088;2022-07-05T02:25:26;6.25;;;2.58;;
32216;SDS011;18709;51.140;4.088;2022-07-05T02:27:52;5.88;;;2.60;;
32216;SDS011;18709;51.140;4.088;2022-07-05T02:30:18;6.35;;;2.80;;
32216;SDS011;18709;51.140;4.088;2022-07-05T02:32:46;7.45;;;2.90;;
32216;SDS011;18709;51.140;4.088;2022-07-05T02:35:12;5.28;;;2.35;;
32216;SDS011;18709;51.140;4.088;2022-07-05T02:37:39;8.65;;;3.15;;
32216;SDS011;18709;51.140;4.088;2022-07-05T02:40:05;7.03;;;2.53;;
32216;SDS011;18709;51.140;4.088;2022-07-05T02:42:35;4.85;;;2.78;;
32216;SDS011;18709;51.140;4.088;2022-07-05T02:45:02;7.50;;;3.25;;
32216;SDS011;18709;51.140;4.088;2022-07-05T02:47:31;9.25;;;2.88;;
32216;SDS011;18709;51.140;4.088;2022-07-05T02:49:59;9.73;;;2.60;;
32216;SDS011;18709;51.140;4.088;2022-07-05T02:52:32;8.80;;;3.05;;
32216;SDS011;18709;51.140;4.088;2022-07-05T02:54:58;13.23;;;2.90;;
32216;SDS011;18709;51.140;4.088;2022-07-05T02:57:23;4.10;;;2.38;;
32216;SDS011;18709;51.140;4.088;2022-07-05T02:59:50;7.07;;;2.78;;
32216;SDS011;18709;51.140;4.088;2022-07-05T03:02:18;9.57;;;3.03;;
32216;SDS011;18709;51.140;4.088;2022-07-05T03:04:44;4.65;;;2.95;;
32216;SDS011;18709;51.140;4.088;2022-07-05T03:07:10;6.88;;;3.35;;
32216;SDS011;18709;51.140;4.088;2022-07-05T03:09:35;7.68;;;2.95;;
32216;SDS011;18709;51.140;4.088;2022-07-05T03:12:01;9.05;;;3.80;;
32216;SDS011;18709;51.140;4.088;2022-07-05T03:14:28;9.75;;;3.90;;
32216;SDS011;18709;51.140;4.088;2022-07-05T03:16:54;12.88;;;3.53;;
32216;SDS011;18709;51.140;4.088;2022-07-05T03:19:20;9.50;;;3.53;;
32216;SDS011;18709;51.140;4.088;2022-07-05T03:21:46;6.93;;;3.58;;
32216;SDS011;18709;51.140;4.088;2022-07-05T03:24:11;5.75;;;3.42;;
32216;SDS011;18709;51.140;4.088;2022-07-05T03:26:37;7.75;;;4.15;;
32216;SDS011;18709;51.140;4.088;2022-07-05T03:29:03;6.68;;;3.72;;
32216;SDS011;18709;51.140;4.088;2022-07-05T03:31:28;8.23;;;3.47;;
32216;SDS011;18709;51.140;4.088;2022-07-05T03:33:54;5.78;;;2.75;;
32216;SDS011;18709;51.140;4.088;2022-07-05T03:36:21;8.32;;;3.88;;
32216;SDS011;18709;51.140;4.088;2022-07-05T03:38:47;7.20;;;4.20;;
32216;SDS011;18709;51.140;4.088;2022-07-05T03:41:13;9.65;;;3.92;;
32216;SDS011;18709;51.140;4.088;2022-07-05T03:43:40;6.22;;;4.28;;
32216;SDS011;18709;51.140;4.088;2022-07-05T03:46:05;10.35;;;4.30;;
32216;SDS011;18709;51.140;4.088;2022-07-05T03:48:32;8.20;;;3.58;;
32216;SDS011;18709;51.140;4.088;2022-07-05T03:50:58;7.80;;;4.28;;
32216;SDS011;18709;51.140;4.088;2022-07-05T03:53:24;9.50;;;4.50;;
32216;SDS011;18709;51.140;4.088;2022-07-05T03:55:50;14.10;;;4.75;;
32216;SDS011;18709;51.140;4.088;2022-07-05T03:58:16;11.38;;;4.50;;
32216;SDS011;18709;51.140;4.088;2022-07-05T04:00:41;7.28;;;4.40;;
32216;SDS011;18709;51.140;4.088;2022-07-05T04:03:07;8.13;;;4.07;;
32216;SDS011;18709;51.140;4.088;2022-07-05T04:05:33;8.23;;;4.57;;
32216;SDS011;18709;51.140;4.088;2022-07-05T04:07:58;10.60;;;4.63;;
32216;SDS011;18709;51.140;4.088;2022-07-05T04:10:24;8.38;;;4.47;;
32216;SDS011;18709;51.140;4.088;2022-07-05T04:12:50;9.07;;;4.78;;
32216;SDS011;18709;51.140;4.088;2022-07-05T04:15:16;9.57;;;4.95;;
32216;SDS011;18709;51.140;4.088;2022-07-05T04:17:48;6.15;;;4.15;;
32216;SDS011;18709;51.140;4.088;2022-07-05T04:20:15;9.98;;;4.45;;
32216;SDS011;18709;51.140;4.088;2022-07-05T04:22:41;11.93;;;4.75;;
32216;SDS011;18709;51.140;4.088;2022-07-05T04:25:07;11.73;;;4.65;;
32216;SDS011;18709;51.140;4.088;2022-07-05T04:27:42;8.32;;;4.18;;
32216;SDS011;18709;51.140;4.088;2022-07-05T04:30:12;10.27;;;4.43;;
32216;SDS011;18709;51.140;4.088;2022-07-05T04:32:38;10.13;;;4.57;;
32216;SDS011;18709;51.140;4.088;2022-07-05T04:35:04;11.02;;;5.70;;
32216;SDS011;18709;51.140;4.088;2022-07-05T04:37:30;9.85;;;4.22;;
32216;SDS011;18709;51.140;4.088;2022-07-05T04:39:56;10.50;;;3.92;;
32216;SDS011;18709;51.140;4.088;2022-07-05T04:42:22;12.95;;;4.53;;
32216;SDS011;18709;51.140;4.088;2022-07-05T04:44:47;9.85;;;3.85;;
32216;SDS011;18709;51.140;4.088;2022-07-05T04:47:13;8.30;;;4.32;;
32216;SDS011;18709;51.140;4.088;2022-07-05T04:49:39;9.73;;;4.20;;
32216;SDS011;18709;51.140;4.088;2022-07-05T04:52:05;10.20;;;4.40;;
32216;SDS011;18709;51.140;4.088;2022-07-05T04:54:31;13.30;;;3.88;;
32216;SDS011;18709;51.140;4.088;2022-07-05T04:56:57;6.85;;;3.75;;
32216;SDS011;18709;51.140;4.088;2022-07-05T04:59:22;11.98;;;4.30;;
32216;SDS011;18709;51.140;4.088;2022-07-05T05:01:48;10.05;;;4.28;;
32216;SDS011;18709;51.140;4.088;2022-07-05T05:04:14;12.05;;;3.80;;
32216;SDS011;18709;51.140;4.088;2022-07-05T05:06:40;8.60;;;4.95;;
32216;SDS011;18709;51.140;4.088;2022-07-05T05:09:05;10.15;;;4.20;;
32216;SDS011;18709;51.140;4.088;2022-07-05T05:11:31;6.72;;;3.92;;
32216;SDS011;18709;51.140;4.088;2022-07-05T05:13:57;13.73;;;4.40;;
32216;SDS011;18709;51.140;4.088;2022-07-05T05:16:22;13.32;;;4.07;;
32216;SDS011;18709;51.140;4.088;2022-07-05T05:18:48;13.48;;;4.47;;
32216;SDS011;18709;51.140;4.088;2022-07-05T05:21:13;11.48;;;5.13;;
32216;SDS011;18709;51.140;4.088;2022-07-05T05:23:39;9.05;;;4.22;;
32216;SDS011;18709;51.140;4.088;2022-07-05T05:26:05;9.65;;;3.95;;
32216;SDS011;18709;51.140;4.088;2022-07-05T05:28:31;7.78;;;3.38;;
32216;SDS011;18709;51.140;4.088;2022-07-05T05:30:57;14.27;;;4.22;;
32216;SDS011;18709;51.140;4.088;2022-07-05T05:33:23;9.70;;;4.53;;
32216;SDS011;18709;51.140;4.088;2022-07-05T05:35:48;7.57;;;4.13;;
32216;SDS011;18709;51.140;4.088;2022-07-05T05:38:14;12.10;;;4.50;;
32216;SDS011;18709;51.140;4.088;2022-07-05T05:40:40;13.48;;;4.53;;
32216;SDS011;18709;51.140;4.088;2022-07-05T05:43:11;10.80;;;4.57;;
32216;SDS011;18709;51.140;4.088;2022-07-05T05:45:37;11.40;;;3.70;;
32216;SDS011;18709;51.140;4.088;2022-07-05T05:48:03;17.45;;;4.40;;
32216;SDS011;18709;51.140;4.088;2022-07-05T05:50:30;8.88;;;4.32;;
32216;SDS011;18709;51.140;4.088;2022-07-05T05:52:58;9.00;;;3.88;;
32216;SDS011;18709;51.140;4.088;2022-07-05T05:55:25;12.70;;;4.35;;
32216;SDS011;18709;51.140;4.088;2022-07-05T05:57:52;9.95;;;3.70;;
32216;SDS011;18709;51.140;4.088;2022-07-05T06:00:19;13.30;;;4.25;;
32216;SDS011;18709;51.140;4.088;2022-07-05T06:02:46;12.05;;;3.97;;
32216;SDS011;18709;51.140;4.088;2022-07-05T06:05:14;11.25;;;4.50;;
32216;SDS011;18709;51.140;4.088;2022-07-05T06:07:48;11.82;;;4.40;;
32216;SDS011;18709;51.140;4.088;2022-07-05T06:10:25;15.20;;;4.78;;
32216;SDS011;18709;51.140;4.088;2022-07-05T06:12:53;13.18;;;4.03;;
32216;SDS011;18709;51.140;4.088;2022-07-05T06:15:21;8.90;;;4.40;;
32216;SDS011;18709;51.140;4.088;2022-07-05T06:17:47;14.40;;;4.30;;
32216;SDS011;18709;51.140;4.088;2022-07-05T06:20:14;12.15;;;4.80;;
32216;SDS011;18709;51.140;4.088;2022-07-05T06:22:41;9.23;;;4.75;;
32216;SDS011;18709;51.140;4.088;2022-07-05T06:25:07;16.90;;;5.10;;
32216;SDS011;18709;51.140;4.088;2022-07-05T06:27:40;15.70;;;6.32;;
32216;SDS011;18709;51.140;4.088;2022-07-05T06:30:26;21.58;;;7.80;;
32216;SDS011;18709;51.140;4.088;2022-07-05T06:32:54;17.65;;;6.10;;
32216;SDS011;18709;51.140;4.088;2022-07-05T06:35:20;15.70;;;6.20;;
32216;SDS011;18709;51.140;4.088;2022-07-05T06:37:50;11.35;;;5.95;;
32216;SDS011;18709;51.140;4.088;2022-07-05T06:40:23;11.50;;;5.25;;
32216;SDS011;18709;51.140;4.088;2022-07-05T06:42:55;16.88;;;6.40;;
32216;SDS011;18709;51.140;4.088;2022-07-05T06:45:22;13.77;;;5.47;;
32216;SDS011;18709;51.140;4.088;2022-07-05T06:47:56;17.52;;;5.53;;
32216;SDS011;18709;51.140;4.088;2022-07-05T06:50:22;15.20;;;6.00;;
32216;SDS011;18709;51.140;4.088;2022-07-05T06:52:48;14.05;;;4.60;;
32216;SDS011;18709;51.140;4.088;2022-07-05T06:55:14;12.85;;;6.13;;
32216;SDS011;18709;51.140;4.088;2022-07-05T06:57:40;24.15;;;6.00;;
32216;SDS011;18709;51.140;4.088;2022-07-05T07:00:06;18.15;;;6.55;;
32216;SDS011;18709;51.140;4.088;2022-07-05T07:02:32;15.02;;;5.75;;
32216;SDS011;18709;51.140;4.088;2022-07-05T07:04:59;12.65;;;5.15;;
32216;SDS011;18709;51.140;4.088;2022-07-05T07:07:24;15.20;;;6.20;;
32216;SDS011;18709;51.140;4.088;2022-07-05T07:10:09;13.85;;;6.15;;
32216;SDS011;18709;51.140;4.088;2022-07-05T07:12:35;16.63;;;5.82;;
32216;SDS011;18709;51.140;4.088;2022-07-05T07:15:00;14.75;;;5.97;;
32216;SDS011;18709;51.140;4.088;2022-07-05T07:17:26;15.95;;;6.38;;
32216;SDS011;18709;51.140;4.088;2022-07-05T07:19:52;16.30;;;5.93;;
32216;SDS011;18709;51.140;4.088;2022-07-05T07:22:18;17.15;;;5.25;;
32216;SDS011;18709;51.140;4.088;2022-07-05T07:24:43;14.07;;;5.32;;
32216;SDS011;18709;51.140;4.088;2022-07-05T07:27:09;20.25;;;6.03;;
32216;SDS011;18709;51.140;4.088;2022-07-05T07:29:35;16.10;;;5.85;;
32216;SDS011;18709;51.140;4.088;2022-07-05T07:32:02;14.63;;;4.90;;
32216;SDS011;18709;51.140;4.088;2022-07-05T07:34:29;12.85;;;4.63;;
32216;SDS011;18709;51.140;4.088;2022-07-05T07:36:55;12.98;;;7.50;;
32216;SDS011;18709;51.140;4.088;2022-07-05T07:39:22;16.35;;;6.82;;
32216;SDS011;18709;51.140;4.088;2022-07-05T07:41:48;15.85;;;6.15;;
32216;SDS011;18709;51.140;4.088;2022-07-05T07:44:14;18.80;;;5.93;;
32216;SDS011;18709;51.140;4.088;2022-07-05T07:46:40;15.63;;;6.20;;
32216;SDS011;18709;51.140;4.088;2022-07-05T07:49:07;17.05;;;5.57;;
32216;SDS011;18709;51.140;4.088;2022-07-05T07:51:33;16.67;;;4.90;;
32216;SDS011;18709;51.140;4.088;2022-07-05T07:53:58;15.55;;;5.65;;
32216;SDS011;18709;51.140;4.088;2022-07-05T07:56:24;13.90;;;4.32;;
32216;SDS011;18709;51.140;4.088;2022-07-05T07:58:50;22.23;;;6.30;;
32216;SDS011;18709;51.140;4.088;2022-07-05T08:01:16;15.60;;;6.45;;
32216;SDS011;18709;51.140;4.088;2022-07-05T08:03:42;17.33;;;5.18;;
32216;SDS011;18709;51.140;4.088;2022-07-05T08:06:10;20.08;;;4.97;;
32216;SDS011;18709;51.140;4.088;2022-07-05T08:08:37;13.93;;;6.50;;
32216;SDS011;18709;51.140;4.088;2022-07-05T08:11:03;13.20;;;4.65;;
32216;SDS011;18709;51.140;4.088;2022-07-05T08:13:30;20.15;;;5.75;;
32216;SDS011;18709;51.140;4.088;2022-07-05T08:15:56;15.70;;;5.43;;
32216;SDS011;18709;51.140;4.088;2022-07-05T08:18:22;12.90;;;4.82;;
32216;SDS011;18709;51.140;4.088;2022-07-05T08:21:07;13.50;;;4.70;;
32216;SDS011;18709;51.140;4.088;2022-07-05T08:23:51;13.60;;;4.78;;
32216;SDS011;18709;51.140;4.088;2022-07-05T08:26:17;16.13;;;4.15;;
32216;SDS011;18709;51.140;4.088;2022-07-05T08:28:43;12.40;;;3.90;;
32216;SDS011;18709;51.140;4.088;2022-07-05T08:31:08;13.35;;;3.65;;
32216;SDS011;18709;51.140;4.088;2022-07-05T08:33:34;16.05;;;4.70;;
32216;SDS011;18709;51.140;4.088;2022-07-05T08:36:00;15.68;;;5.05;;
32216;SDS011;18709;51.140;4.088;2022-07-05T08:38:26;15.23;;;5.32;;
32216;SDS011;18709;51.140;4.088;2022-07-05T08:40:51;13.40;;;5.63;;
32216;SDS011;18709;51.140;4.088;2022-07-05T08:43:21;20.48;;;7.72;;
32216;SDS011;18709;51.140;4.088;2022-07-05T08:45:49;16.50;;;6.60;;
32216;SDS011;18709;51.140;4.088;2022-07-05T08:48:15;14.45;;;5.60;;
32216;SDS011;18709;51.140;4.088;2022-07-05T08:50:42;22.63;;;6.55;;
32216;SDS011;18709;51.140;4.088;2022-07-05T08:53:09;23.60;;;8.25;;
32216;SDS011;18709;51.140;4.088;2022-07-05T08:55:35;17.92;;;6.70;;
32216;SDS011;18709;51.140;4.088;2022-07-05T08:58:01;18.88;;;7.45;;
32216;SDS011;18709;51.140;4.088;2022-07-05T09:00:27;18.48;;;7.70;;
32216;SDS011;18709;51.140;4.088;2022-07-05T09:02:53;24.17;;;7.35;;
32216;SDS011;18709;51.140;4.088;2022-07-05T09:05:21;21.58;;;7.10;;
32216;SDS011;18709;51.140;4.088;2022-07-05T09:07:54;11.88;;;5.35;;
32216;SDS011;18709;51.140;4.088;2022-07-05T09:10:27;15.98;;;6.40;;
32216;SDS011;18709;51.140;4.088;2022-07-05T09:12:55;12.75;;;5.07;;
32216;SDS011;18709;51.140;4.088;2022-07-05T09:15:22;11.93;;;5.20;;
32216;SDS011;18709;51.140;4.088;2022-07-05T09:17:49;15.40;;;4.40;;
32216;SDS011;18709;51.140;4.088;2022-07-05T09:20:18;12.00;;;4.13;;
32216;SDS011;18709;51.140;4.088;2022-07-05T09:22:51;10.57;;;4.50;;
32216;SDS011;18709;51.140;4.088;2022-07-05T09:25:25;9.48;;;3.47;;
32216;SDS011;18709;51.140;4.088;2022-07-05T09:27:54;15.27;;;4.60;;
32216;SDS011;18709;51.140;4.088;2022-07-05T09:33:23;7.93;;;3.53;;
32216;SDS011;18709;51.140;4.088;2022-07-05T09:35:51;9.85;;;4.13;;
32216;SDS011;18709;51.140;4.088;2022-07-05T09:38:20;13.75;;;4.15;;
32216;SDS011;18709;51.140;4.088;2022-07-05T09:40:51;9.80;;;4.13;;
32216;SDS011;18709;51.140;4.088;2022-07-05T09:43:22;9.77;;;3.85;;
32216;SDS011;18709;51.140;4.088;2022-07-05T09:45:59;7.35;;;3.15;;
32216;SDS011;18709;51.140;4.088;2022-07-05T09:48:27;9.55;;;3.85;;
32216;SDS011;18709;51.140;4.088;2022-07-05T09:51:03;8.90;;;3.25;;
32216;SDS011;18709;51.140;4.088;2022-07-05T09:53:44;7.63;;;3.35;;
32216;SDS011;18709;51.140;4.088;2022-07-05T09:56:14;11.25;;;3.90;;
32216;SDS011;18709;51.140;4.088;2022-07-05T09:58:40;9.18;;;3.65;;
32216;SDS011;18709;51.140;4.088;2022-07-05T10:01:29;7.70;;;3.80;;
32216;SDS011;18709;51.140;4.088;2022-07-05T10:03:55;7.38;;;3.30;;
32216;SDS011;18709;51.140;4.088;2022-07-05T10:06:28;7.75;;;3.72;;
32216;SDS011;18709;51.140;4.088;2022-07-05T10:08:57;10.68;;;4.20;;
32216;SDS011;18709;51.140;4.088;2022-07-05T10:11:23;9.68;;;4.30;;
32216;SDS011;18709;51.140;4.088;2022-07-05T10:13:50;12.38;;;4.05;;
32216;SDS011;18709;51.140;4.088;2022-07-05T10:16:18;6.35;;;2.92;;
32216;SDS011;18709;51.140;4.088;2022-07-05T10:18:45;7.07;;;2.65;;
32216;SDS011;18709;51.140;4.088;2022-07-05T10:21:17;5.57;;;2.03;;
32216;SDS011;18709;51.140;4.088;2022-07-05T10:23:47;6.38;;;2.17;;
32216;SDS011;18709;51.140;4.088;2022-07-05T10:26:19;7.18;;;2.22;;
32216;SDS011;18709;51.140;4.088;2022-07-05T10:28:47;6.35;;;2.00;;
32216;SDS011;18709;51.140;4.088;2022-07-05T10:31:17;6.03;;;2.30;;
32216;SDS011;18709;51.140;4.088;2022-07-05T10:33:44;6.68;;;2.05;;
32216;SDS011;18709;51.140;4.088;2022-07-05T10:36:10;5.63;;;1.67;;
32216;SDS011;18709;51.140;4.088;2022-07-05T10:38:37;4.95;;;1.65;;
32216;SDS011;18709;51.140;4.088;2022-07-05T10:41:05;3.83;;;1.50;;
32216;SDS011;18709;51.140;4.088;2022-07-05T10:43:34;4.68;;;1.70;;
32216;SDS011;18709;51.140;4.088;2022-07-05T10:46:00;8.73;;;1.73;;
32216;SDS011;18709;51.140;4.088;2022-07-05T10:48:27;3.95;;;1.58;;
32216;SDS011;18709;51.140;4.088;2022-07-05T11:06:20;3.83;;;1.30;;
32216;SDS011;18709;51.140;4.088;2022-07-05T11:13:59;3.50;;;1.58;;
32216;SDS011;18709;51.140;4.088;2022-07-05T11:16:27;2.58;;;0.93;;
32216;SDS011;18709;51.140;4.088;2022-07-05T11:19:03;3.45;;;1.17;;
32216;SDS011;18709;51.140;4.088;2022-07-05T11:21:29;2.90;;;1.10;;
32216;SDS011;18709;51.140;4.088;2022-07-05T11:24:41;3.85;;;1.40;;
32216;SDS011;18709;51.140;4.088;2022-07-05T11:26:47;4.22;;;1.13;;
32216;SDS011;18709;51.140;4.088;2022-07-05T11:32:06;4.25;;;1.02;;
32216;SDS011;18709;51.140;4.088;2022-07-05T11:34:33;5.50;;;1.77;;
32216;SDS011;18709;51.140;4.088;2022-07-05T11:37:19;3.42;;;0.82;;
32216;SDS011;18709;51.140;4.088;2022-07-05T11:45:06;5.53;;;1.17;;
32216;SDS011;18709;51.140;4.088;2022-07-05T11:47:33;3.03;;;1.15;;
32216;SDS011;18709;51.140;4.088;2022-07-05T11:50:00;3.08;;;1.05;;
32216;SDS011;18709;51.140;4.088;2022-07-05T11:52:27;4.00;;;1.38;;
32216;SDS011;18709;51.140;4.088;2022-07-05T11:54:54;3.00;;;1.15;;
32216;SDS011;18709;51.140;4.088;2022-07-05T11:57:20;4.65;;;0.80;;
32216;SDS011;18709;51.140;4.088;2022-07-05T11:59:46;4.30;;;1.25;;
32216;SDS011;18709;51.140;4.088;2022-07-05T12:02:12;2.33;;;0.80;;
32216;SDS011;18709;51.140;4.088;2022-07-05T12:04:38;3.00;;;1.00;;
32216;SDS011;18709;51.140;4.088;2022-07-05T12:07:04;2.65;;;1.17;;
32216;SDS011;18709;51.140;4.088;2022-07-05T12:09:31;3.22;;;1.10;;
32216;SDS011;18709;51.140;4.088;2022-07-05T12:12:22;1.73;;;0.70;;
32216;SDS011;18709;51.140;4.088;2022-07-05T12:15:08;5.13;;;1.05;;
32216;SDS011;18709;51.140;4.088;2022-07-05T12:17:34;3.15;;;0.85;;
32216;SDS011;18709;51.140;4.088;2022-07-05T12:20:01;4.35;;;0.93;;
32216;SDS011;18709;51.140;4.088;2022-07-05T12:22:28;4.45;;;1.10;;
32216;SDS011;18709;51.140;4.088;2022-07-05T12:24:58;3.28;;;0.98;;
32216;SDS011;18709;51.140;4.088;2022-07-05T12:27:29;4.38;;;1.10;;
32216;SDS011;18709;51.140;4.088;2022-07-05T12:29:57;2.63;;;1.10;;
32216;SDS011;18709;51.140;4.088;2022-07-05T12:32:23;1.80;;;0.70;;
32216;SDS011;18709;51.140;4.088;2022-07-05T12:34:49;1.77;;;0.90;;
32216;SDS011;18709;51.140;4.088;2022-07-05T12:37:21;6.25;;;1.05;;
32216;SDS011;18709;51.140;4.088;2022-07-05T12:39:48;1.80;;;0.85;;
32216;SDS011;18709;51.140;4.088;2022-07-05T12:42:31;3.10;;;0.90;;
32216;SDS011;18709;51.140;4.088;2022-07-05T12:45:10;1.85;;;0.80;;
32216;SDS011;18709;51.140;4.088;2022-07-05T12:47:50;3.03;;;0.93;;
32216;SDS011;18709;51.140;4.088;2022-07-05T12:56:08;4.38;;;1.05;;
32216;SDS011;18709;51.140;4.088;2022-07-05T13:04:17;2.53;;;0.80;;
32216;SDS011;18709;51.140;4.088;2022-07-05T13:09:10;1.80;;;0.70;;
32216;SDS011;18709;51.140;4.088;2022-07-05T13:11:42;3.83;;;0.85;;
32216;SDS011;18709;51.140;4.088;2022-07-05T13:14:08;4.35;;;0.90;;
32216;SDS011;18709;51.140;4.088;2022-07-05T13:16:34;2.55;;;0.85;;
32216;SDS011;18709;51.140;4.088;2022-07-05T13:19:06;3.03;;;0.80;;
32216;SDS011;18709;51.140;4.088;2022-07-05T13:21:33;3.05;;;1.00;;
32216;SDS011;18709;51.140;4.088;2022-07-05T13:23:59;4.15;;;0.85;;
32216;SDS011;18709;51.140;4.088;2022-07-05T13:26:24;3.83;;;0.88;;
32216;SDS011;18709;51.140;4.088;2022-07-05T13:28:50;1.48;;;0.90;;
32216;SDS011;18709;51.140;4.088;2022-07-05T13:31:16;2.83;;;0.63;;
32216;SDS011;18709;51.140;4.088;2022-07-05T13:33:41;4.70;;;1.15;;
32216;SDS011;18709;51.140;4.088;2022-07-05T13:36:07;2.95;;;0.80;;
32216;SDS011;18709;51.140;4.088;2022-07-05T13:38:33;5.22;;;0.90;;
32216;SDS011;18709;51.140;4.088;2022-07-05T13:40:58;1.27;;;0.70;;
32216;SDS011;18709;51.140;4.088;2022-07-05T13:43:24;1.85;;;0.60;;
32216;SDS011;18709;51.140;4.088;2022-07-05T13:45:50;3.45;;;0.75;;
32216;SDS011;18709;51.140;4.088;2022-07-05T13:48:15;1.63;;;0.85;;
32216;SDS011;18709;51.140;4.088;2022-07-05T13:50:41;3.30;;;0.73;;
32216;SDS011;18709;51.140;4.088;2022-07-05T13:53:07;1.48;;;0.68;;
32216;SDS011;18709;51.140;4.088;2022-07-05T13:55:32;2.70;;;0.70;;
32216;SDS011;18709;51.140;4.088;2022-07-05T13:57:58;4.85;;;1.00;;
32216;SDS011;18709;51.140;4.088;2022-07-05T14:00:24;2.53;;;0.80;;
32216;SDS011;18709;51.140;4.088;2022-07-05T14:02:51;1.63;;;0.60;;
32216;SDS011;18709;51.140;4.088;2022-07-05T14:05:16;2.63;;;0.95;;
32216;SDS011;18709;51.140;4.088;2022-07-05T14:07:43;4.63;;;0.95;;
32216;SDS011;18709;51.140;4.088;2022-07-05T14:10:09;1.30;;;0.80;;
32216;SDS011;18709;51.140;4.088;2022-07-05T14:12:35;2.08;;;0.73;;
32216;SDS011;18709;51.140;4.088;2022-07-05T14:15:00;1.95;;;0.70;;
32216;SDS011;18709;51.140;4.088;2022-07-05T14:17:26;3.75;;;0.60;;
32216;SDS011;18709;51.140;4.088;2022-07-05T14:19:52;0.93;;;0.65;;
32216;SDS011;18709;51.140;4.088;2022-07-05T14:22:17;2.88;;;0.60;;
32216;SDS011;18709;51.140;4.088;2022-07-05T14:24:43;2.17;;;0.63;;
32216;SDS011;18709;51.140;4.088;2022-07-05T14:27:09;1.95;;;0.50;;
32216;SDS011;18709;51.140;4.088;2022-07-05T14:29:34;3.38;;;0.63;;
32216;SDS011;18709;51.140;4.088;2022-07-05T14:32:00;1.90;;;0.60;;
32216;SDS011;18709;51.140;4.088;2022-07-05T14:34:26;2.53;;;0.73;;
32216;SDS011;18709;51.140;4.088;2022-07-05T14:36:54;5.57;;;0.68;;
32216;SDS011;18709;51.140;4.088;2022-07-05T14:39:20;2.08;;;0.70;;
32216;SDS011;18709;51.140;4.088;2022-07-05T14:41:46;3.17;;;0.70;;
32216;SDS011;18709;51.140;4.088;2022-07-05T14:44:12;1.80;;;0.70;;
32216;SDS011;18709;51.140;4.088;2022-07-05T14:46:38;5.18;;;0.90;;
32216;SDS011;18709;51.140;4.088;2022-07-05T14:49:04;2.92;;;0.57;;
32216;SDS011;18709;51.140;4.088;2022-07-05T14:51:30;2.08;;;0.80;;
32216;SDS011;18709;51.140;4.088;2022-07-05T14:53:55;0.75;;;0.65;;
32216;SDS011;18709;51.140;4.088;2022-07-05T14:56:21;1.42;;;0.63;;
32216;SDS011;18709;51.140;4.088;2022-07-05T14:58:47;1.25;;;0.60;;
32216;SDS011;18709;51.140;4.088;2022-07-05T15:01:15;1.30;;;0.50;;
32216;SDS011;18709;51.140;4.088;2022-07-05T15:03:43;0.98;;;0.55;;
32216;SDS011;18709;51.140;4.088;2022-07-05T15:06:08;1.05;;;0.43;;
32216;SDS011;18709;51.140;4.088;2022-07-05T15:08:35;0.73;;;0.52;;
32216;SDS011;18709;51.140;4.088;2022-07-05T15:11:02;4.85;;;0.70;;
32216;SDS011;18709;51.140;4.088;2022-07-05T15:13:29;1.60;;;0.55;;
32216;SDS011;18709;51.140;4.088;2022-07-05T15:15:55;1.60;;;0.75;;
32216;SDS011;18709;51.140;4.088;2022-07-05T15:18:22;1.50;;;0.52;;
32216;SDS011;18709;51.140;4.088;2022-07-05T15:20:49;1.55;;;0.50;;
32216;SDS011;18709;51.140;4.088;2022-07-05T15:23:17;1.17;;;0.60;;
32216;SDS011;18709;51.140;4.088;2022-07-05T15:25:43;2.28;;;0.77;;
32216;SDS011;18709;51.140;4.088;2022-07-05T15:28:09;1.85;;;0.60;;
32216;SDS011;18709;51.140;4.088;2022-07-05T15:30:37;2.08;;;0.95;;